<?xml version="1.0" encoding="UTF-8" standalone="no" ?>
<gpx xmlns="http://www.topografix.com/GPX/1/1" xmlns:xsi="http://www.w3.org/2001/XMLSchema-instance" xsi:schemaLocation="http://www.topografix.com/GPX/1/1 http://www.topografix.com/GPX/1/1/gpx.xsd" version="1.1" creator="VisuGPX - https://www.visugpx.com">
  <metadata>
    <name>Circuit du Bilstein</name>
    <desc><![CDATA[Attention, la durée de ce parcours n'est pas juste!
Il faut compter environ 4h00]]></desc>
  </metadata>
  <trk>
    <name><![CDATA[Circuit du Bilstein]]></name>
    <trkseg>
      <trkpt lat="48.32621" lon="7.22358">
        <ele>389</ele>
        <time>2021-03-30T10:16:15+02:00</time>
      </trkpt>
      <trkpt lat="48.32631" lon="7.22368">
        <ele>389</ele>
        <time>2021-03-30T10:16:20+02:00</time>
      </trkpt>
      <trkpt lat="48.32638" lon="7.22369">
        <ele>389</ele>
        <time>2021-03-30T10:16:25+02:00</time>
      </trkpt>
      <trkpt lat="48.32644" lon="7.22366">
        <ele>389</ele>
        <time>2021-03-30T10:16:30+02:00</time>
      </trkpt>
      <trkpt lat="48.3266" lon="7.22353">
        <ele>388</ele>
        <time>2021-03-30T10:16:35+02:00</time>
      </trkpt>
      <trkpt lat="48.3267" lon="7.22346">
        <ele>389</ele>
        <time>2021-03-30T10:16:40+02:00</time>
      </trkpt>
      <trkpt lat="48.32674" lon="7.22344">
        <ele>390</ele>
        <time>2021-03-30T10:16:45+02:00</time>
      </trkpt>
      <trkpt lat="48.32679" lon="7.22358">
        <ele>392</ele>
        <time>2021-03-30T10:16:50+02:00</time>
      </trkpt>
      <trkpt lat="48.32687" lon="7.22381">
        <ele>395</ele>
        <time>2021-03-30T10:16:55+02:00</time>
      </trkpt>
      <trkpt lat="48.32694" lon="7.22397">
        <ele>398</ele>
        <time>2021-03-30T10:17:00+02:00</time>
      </trkpt>
      <trkpt lat="48.32701" lon="7.22411">
        <ele>400</ele>
        <time>2021-03-30T10:17:05+02:00</time>
      </trkpt>
      <trkpt lat="48.32707" lon="7.22416">
        <ele>401</ele>
        <time>2021-03-30T10:17:10+02:00</time>
      </trkpt>
      <trkpt lat="48.32714" lon="7.22415">
        <ele>403</ele>
        <time>2021-03-30T10:17:15+02:00</time>
      </trkpt>
      <trkpt lat="48.32724" lon="7.22425">
        <ele>407</ele>
        <time>2021-03-30T10:17:20+02:00</time>
      </trkpt>
      <trkpt lat="48.32738" lon="7.22434">
        <ele>413</ele>
        <time>2021-03-30T10:17:25+02:00</time>
      </trkpt>
      <trkpt lat="48.32761" lon="7.22444">
        <ele>420</ele>
        <time>2021-03-30T10:17:30+02:00</time>
      </trkpt>
      <trkpt lat="48.32774" lon="7.22444">
        <ele>423</ele>
        <time>2021-03-30T10:17:35+02:00</time>
      </trkpt>
      <trkpt lat="48.32784" lon="7.22444">
        <ele>426</ele>
        <time>2021-03-30T10:17:40+02:00</time>
      </trkpt>
      <trkpt lat="48.32791" lon="7.22446">
        <ele>428</ele>
        <time>2021-03-30T10:17:45+02:00</time>
      </trkpt>
      <trkpt lat="48.32803" lon="7.22446">
        <ele>431</ele>
        <time>2021-03-30T10:17:50+02:00</time>
      </trkpt>
      <trkpt lat="48.3282" lon="7.22449">
        <ele>435</ele>
        <time>2021-03-30T10:17:55+02:00</time>
      </trkpt>
      <trkpt lat="48.32836" lon="7.22462">
        <ele>441</ele>
        <time>2021-03-30T10:18:00+02:00</time>
      </trkpt>
      <trkpt lat="48.32853" lon="7.22467">
        <ele>447</ele>
        <time>2021-03-30T10:18:05+02:00</time>
      </trkpt>
      <trkpt lat="48.32865" lon="7.22468">
        <ele>451</ele>
        <time>2021-03-30T10:18:10+02:00</time>
      </trkpt>
      <trkpt lat="48.32874" lon="7.22477">
        <ele>455</ele>
        <time>2021-03-30T10:18:15+02:00</time>
      </trkpt>
      <trkpt lat="48.3288" lon="7.22488">
        <ele>459</ele>
        <time>2021-03-30T10:18:20+02:00</time>
      </trkpt>
      <trkpt lat="48.32889" lon="7.22504">
        <ele>464</ele>
        <time>2021-03-30T10:18:25+02:00</time>
      </trkpt>
      <trkpt lat="48.32895" lon="7.22523">
        <ele>469</ele>
        <time>2021-03-30T10:18:30+02:00</time>
      </trkpt>
      <trkpt lat="48.32907" lon="7.22561">
        <ele>477</ele>
        <time>2021-03-30T10:18:35+02:00</time>
      </trkpt>
      <trkpt lat="48.32913" lon="7.22578">
        <ele>481</ele>
        <time>2021-03-30T10:18:40+02:00</time>
      </trkpt>
      <trkpt lat="48.32921" lon="7.22593">
        <ele>486</ele>
        <time>2021-03-30T10:18:45+02:00</time>
      </trkpt>
      <trkpt lat="48.32926" lon="7.22598">
        <ele>489</ele>
        <time>2021-03-30T10:18:50+02:00</time>
      </trkpt>
      <trkpt lat="48.32937" lon="7.22625">
        <ele>499</ele>
        <time>2021-03-30T10:18:55+02:00</time>
      </trkpt>
      <trkpt lat="48.32947" lon="7.22657">
        <ele>507</ele>
        <time>2021-03-30T10:19:00+02:00</time>
      </trkpt>
      <trkpt lat="48.32948" lon="7.22665">
        <ele>509</ele>
        <time>2021-03-30T10:19:05+02:00</time>
      </trkpt>
      <trkpt lat="48.32949" lon="7.22675">
        <ele>511</ele>
        <time>2021-03-30T10:19:10+02:00</time>
      </trkpt>
      <trkpt lat="48.32949" lon="7.22684">
        <ele>512</ele>
        <time>2021-03-30T10:19:15+02:00</time>
      </trkpt>
      <trkpt lat="48.32948" lon="7.22694">
        <ele>513</ele>
        <time>2021-03-30T10:19:20+02:00</time>
      </trkpt>
      <trkpt lat="48.32945" lon="7.22712">
        <ele>515</ele>
        <time>2021-03-30T10:19:25+02:00</time>
      </trkpt>
      <trkpt lat="48.32944" lon="7.22719">
        <ele>515</ele>
        <time>2021-03-30T10:19:30+02:00</time>
      </trkpt>
      <trkpt lat="48.32944" lon="7.22731">
        <ele>517</ele>
        <time>2021-03-30T10:19:35+02:00</time>
      </trkpt>
      <trkpt lat="48.32945" lon="7.22746">
        <ele>519</ele>
        <time>2021-03-30T10:19:40+02:00</time>
      </trkpt>
      <trkpt lat="48.32951" lon="7.22773">
        <ele>522</ele>
        <time>2021-03-30T10:19:45+02:00</time>
      </trkpt>
      <trkpt lat="48.32955" lon="7.22792">
        <ele>524</ele>
        <time>2021-03-30T10:19:50+02:00</time>
      </trkpt>
      <trkpt lat="48.3296" lon="7.228">
        <ele>525</ele>
        <time>2021-03-30T10:19:55+02:00</time>
      </trkpt>
      <trkpt lat="48.32965" lon="7.22822">
        <ele>528</ele>
        <time>2021-03-30T10:20:00+02:00</time>
      </trkpt>
      <trkpt lat="48.32974" lon="7.2286">
        <ele>532</ele>
        <time>2021-03-30T10:20:05+02:00</time>
      </trkpt>
      <trkpt lat="48.32984" lon="7.2293">
        <ele>540</ele>
        <time>2021-03-30T10:20:10+02:00</time>
      </trkpt>
      <trkpt lat="48.32989" lon="7.22906">
        <ele>541</ele>
        <time>2021-03-30T10:20:15+02:00</time>
      </trkpt>
      <trkpt lat="48.32994" lon="7.22882">
        <ele>541</ele>
        <time>2021-03-30T10:20:20+02:00</time>
      </trkpt>
      <trkpt lat="48.33008" lon="7.22824">
        <ele>543</ele>
        <time>2021-03-30T10:20:25+02:00</time>
      </trkpt>
      <trkpt lat="48.33012" lon="7.22803">
        <ele>544</ele>
        <time>2021-03-30T10:20:30+02:00</time>
      </trkpt>
      <trkpt lat="48.33015" lon="7.22774">
        <ele>544</ele>
        <time>2021-03-30T10:20:35+02:00</time>
      </trkpt>
      <trkpt lat="48.33021" lon="7.2275">
        <ele>545</ele>
        <time>2021-03-30T10:20:40+02:00</time>
      </trkpt>
      <trkpt lat="48.33035" lon="7.2272">
        <ele>552</ele>
        <time>2021-03-30T10:20:45+02:00</time>
      </trkpt>
      <trkpt lat="48.33048" lon="7.22698">
        <ele>558</ele>
        <time>2021-03-30T10:20:50+02:00</time>
      </trkpt>
      <trkpt lat="48.33054" lon="7.22683">
        <ele>560</ele>
        <time>2021-03-30T10:20:55+02:00</time>
      </trkpt>
      <trkpt lat="48.33055" lon="7.22672">
        <ele>560</ele>
        <time>2021-03-30T10:21:00+02:00</time>
      </trkpt>
      <trkpt lat="48.33053" lon="7.22657">
        <ele>559</ele>
        <time>2021-03-30T10:21:05+02:00</time>
      </trkpt>
      <trkpt lat="48.33049" lon="7.22633">
        <ele>557</ele>
        <time>2021-03-30T10:21:10+02:00</time>
      </trkpt>
      <trkpt lat="48.33047" lon="7.22616">
        <ele>556</ele>
        <time>2021-03-30T10:21:15+02:00</time>
      </trkpt>
      <trkpt lat="48.33049" lon="7.22599">
        <ele>557</ele>
        <time>2021-03-30T10:21:20+02:00</time>
      </trkpt>
      <trkpt lat="48.33057" lon="7.22567">
        <ele>560</ele>
        <time>2021-03-30T10:21:25+02:00</time>
      </trkpt>
      <trkpt lat="48.33065" lon="7.22545">
        <ele>563</ele>
        <time>2021-03-30T10:21:30+02:00</time>
      </trkpt>
      <trkpt lat="48.33076" lon="7.22515">
        <ele>567</ele>
        <time>2021-03-30T10:21:35+02:00</time>
      </trkpt>
      <trkpt lat="48.33087" lon="7.22488">
        <ele>569</ele>
        <time>2021-03-30T10:21:40+02:00</time>
      </trkpt>
      <trkpt lat="48.33095" lon="7.2247">
        <ele>569</ele>
        <time>2021-03-30T10:21:45+02:00</time>
      </trkpt>
      <trkpt lat="48.33108" lon="7.22446">
        <ele>571</ele>
        <time>2021-03-30T10:21:50+02:00</time>
      </trkpt>
      <trkpt lat="48.33122" lon="7.22427">
        <ele>574</ele>
        <time>2021-03-30T10:21:55+02:00</time>
      </trkpt>
      <trkpt lat="48.33135" lon="7.22395">
        <ele>578</ele>
        <time>2021-03-30T10:22:00+02:00</time>
      </trkpt>
      <trkpt lat="48.33142" lon="7.22378">
        <ele>580</ele>
        <time>2021-03-30T10:22:05+02:00</time>
      </trkpt>
      <trkpt lat="48.33148" lon="7.22347">
        <ele>582</ele>
        <time>2021-03-30T10:22:10+02:00</time>
      </trkpt>
      <trkpt lat="48.33153" lon="7.22317">
        <ele>586</ele>
        <time>2021-03-30T10:22:15+02:00</time>
      </trkpt>
      <trkpt lat="48.33156" lon="7.22294">
        <ele>590</ele>
        <time>2021-03-30T10:22:20+02:00</time>
      </trkpt>
      <trkpt lat="48.33153" lon="7.22277">
        <ele>591</ele>
        <time>2021-03-30T10:22:25+02:00</time>
      </trkpt>
      <trkpt lat="48.33147" lon="7.22253">
        <ele>592</ele>
        <time>2021-03-30T10:22:30+02:00</time>
      </trkpt>
      <trkpt lat="48.33141" lon="7.22232">
        <ele>593</ele>
        <time>2021-03-30T10:22:35+02:00</time>
      </trkpt>
      <trkpt lat="48.33133" lon="7.22212">
        <ele>594</ele>
        <time>2021-03-30T10:22:40+02:00</time>
      </trkpt>
      <trkpt lat="48.33127" lon="7.22197">
        <ele>595</ele>
        <time>2021-03-30T10:22:45+02:00</time>
      </trkpt>
      <trkpt lat="48.3312" lon="7.22183">
        <ele>595</ele>
        <time>2021-03-30T10:22:50+02:00</time>
      </trkpt>
      <trkpt lat="48.33108" lon="7.22152">
        <ele>596</ele>
        <time>2021-03-30T10:22:55+02:00</time>
      </trkpt>
      <trkpt lat="48.33102" lon="7.22133">
        <ele>595</ele>
        <time>2021-03-30T10:23:00+02:00</time>
      </trkpt>
      <trkpt lat="48.331" lon="7.22117">
        <ele>596</ele>
        <time>2021-03-30T10:23:05+02:00</time>
      </trkpt>
      <trkpt lat="48.33097" lon="7.22104">
        <ele>596</ele>
        <time>2021-03-30T10:23:10+02:00</time>
      </trkpt>
      <trkpt lat="48.33098" lon="7.22085">
        <ele>598</ele>
        <time>2021-03-30T10:23:15+02:00</time>
      </trkpt>
      <trkpt lat="48.33101" lon="7.22072">
        <ele>598</ele>
        <time>2021-03-30T10:23:20+02:00</time>
      </trkpt>
      <trkpt lat="48.33108" lon="7.22061">
        <ele>599</ele>
        <time>2021-03-30T10:23:25+02:00</time>
      </trkpt>
      <trkpt lat="48.33112" lon="7.22043">
        <ele>598</ele>
        <time>2021-03-30T10:23:30+02:00</time>
      </trkpt>
      <trkpt lat="48.33113" lon="7.22016">
        <ele>596</ele>
        <time>2021-03-30T10:23:35+02:00</time>
      </trkpt>
      <trkpt lat="48.33113" lon="7.22001">
        <ele>595</ele>
        <time>2021-03-30T10:23:40+02:00</time>
      </trkpt>
      <trkpt lat="48.33121" lon="7.21981">
        <ele>593</ele>
        <time>2021-03-30T10:23:45+02:00</time>
      </trkpt>
      <trkpt lat="48.3313" lon="7.21964">
        <ele>592</ele>
        <time>2021-03-30T10:23:50+02:00</time>
      </trkpt>
      <trkpt lat="48.33141" lon="7.21955">
        <ele>593</ele>
        <time>2021-03-30T10:23:55+02:00</time>
      </trkpt>
      <trkpt lat="48.33154" lon="7.21947">
        <ele>595</ele>
        <time>2021-03-30T10:24:00+02:00</time>
      </trkpt>
      <trkpt lat="48.33163" lon="7.21945">
        <ele>597</ele>
        <time>2021-03-30T10:24:05+02:00</time>
      </trkpt>
      <trkpt lat="48.3318" lon="7.21948">
        <ele>599</ele>
        <time>2021-03-30T10:24:10+02:00</time>
      </trkpt>
      <trkpt lat="48.33197" lon="7.21952">
        <ele>601</ele>
        <time>2021-03-30T10:24:15+02:00</time>
      </trkpt>
      <trkpt lat="48.33215" lon="7.21959">
        <ele>604</ele>
        <time>2021-03-30T10:24:20+02:00</time>
      </trkpt>
      <trkpt lat="48.33228" lon="7.21961">
        <ele>605</ele>
        <time>2021-03-30T10:24:25+02:00</time>
      </trkpt>
      <trkpt lat="48.33243" lon="7.2196">
        <ele>606</ele>
        <time>2021-03-30T10:24:30+02:00</time>
      </trkpt>
      <trkpt lat="48.33254" lon="7.21953">
        <ele>606</ele>
        <time>2021-03-30T10:24:35+02:00</time>
      </trkpt>
      <trkpt lat="48.33268" lon="7.21939">
        <ele>605</ele>
        <time>2021-03-30T10:24:40+02:00</time>
      </trkpt>
      <trkpt lat="48.33275" lon="7.21925">
        <ele>605</ele>
        <time>2021-03-30T10:24:45+02:00</time>
      </trkpt>
      <trkpt lat="48.33282" lon="7.21902">
        <ele>604</ele>
        <time>2021-03-30T10:24:50+02:00</time>
      </trkpt>
      <trkpt lat="48.33288" lon="7.21874">
        <ele>604</ele>
        <time>2021-03-30T10:24:55+02:00</time>
      </trkpt>
      <trkpt lat="48.33298" lon="7.21828">
        <ele>604</ele>
        <time>2021-03-30T10:25:00+02:00</time>
      </trkpt>
      <trkpt lat="48.33306" lon="7.218">
        <ele>604</ele>
        <time>2021-03-30T10:25:05+02:00</time>
      </trkpt>
      <trkpt lat="48.33314" lon="7.2178">
        <ele>604</ele>
        <time>2021-03-30T10:25:10+02:00</time>
      </trkpt>
      <trkpt lat="48.33325" lon="7.21756">
        <ele>605</ele>
        <time>2021-03-30T10:25:15+02:00</time>
      </trkpt>
      <trkpt lat="48.33324" lon="7.21726">
        <ele>605</ele>
        <time>2021-03-30T10:25:20+02:00</time>
      </trkpt>
      <trkpt lat="48.33322" lon="7.21669">
        <ele>604</ele>
        <time>2021-03-30T10:25:25+02:00</time>
      </trkpt>
      <trkpt lat="48.33317" lon="7.2161">
        <ele>604</ele>
        <time>2021-03-30T10:25:30+02:00</time>
      </trkpt>
      <trkpt lat="48.33321" lon="7.2159">
        <ele>605</ele>
        <time>2021-03-30T10:25:35+02:00</time>
      </trkpt>
      <trkpt lat="48.33321" lon="7.21561">
        <ele>607</ele>
        <time>2021-03-30T10:25:40+02:00</time>
      </trkpt>
      <trkpt lat="48.33321" lon="7.21543">
        <ele>608</ele>
        <time>2021-03-30T10:25:45+02:00</time>
      </trkpt>
      <trkpt lat="48.33323" lon="7.21521">
        <ele>610</ele>
        <time>2021-03-30T10:25:50+02:00</time>
      </trkpt>
      <trkpt lat="48.33329" lon="7.21496">
        <ele>613</ele>
        <time>2021-03-30T10:25:55+02:00</time>
      </trkpt>
      <trkpt lat="48.33336" lon="7.21468">
        <ele>615</ele>
        <time>2021-03-30T10:26:00+02:00</time>
      </trkpt>
      <trkpt lat="48.3334" lon="7.21444">
        <ele>615</ele>
        <time>2021-03-30T10:26:05+02:00</time>
      </trkpt>
      <trkpt lat="48.33341" lon="7.21425">
        <ele>616</ele>
        <time>2021-03-30T10:26:10+02:00</time>
      </trkpt>
      <trkpt lat="48.33341" lon="7.21378">
        <ele>622</ele>
        <time>2021-03-30T10:26:15+02:00</time>
      </trkpt>
      <trkpt lat="48.33342" lon="7.21356">
        <ele>624</ele>
        <time>2021-03-30T10:26:20+02:00</time>
      </trkpt>
      <trkpt lat="48.3335" lon="7.21315">
        <ele>624</ele>
        <time>2021-03-30T10:26:25+02:00</time>
      </trkpt>
      <trkpt lat="48.33353" lon="7.21293">
        <ele>624</ele>
        <time>2021-03-30T10:26:30+02:00</time>
      </trkpt>
      <trkpt lat="48.33351" lon="7.2127">
        <ele>627</ele>
        <time>2021-03-30T10:26:35+02:00</time>
      </trkpt>
      <trkpt lat="48.33352" lon="7.21244">
        <ele>628</ele>
        <time>2021-03-30T10:26:40+02:00</time>
      </trkpt>
      <trkpt lat="48.33362" lon="7.21197">
        <ele>627</ele>
        <time>2021-03-30T10:26:45+02:00</time>
      </trkpt>
      <trkpt lat="48.33375" lon="7.2115">
        <ele>624</ele>
        <time>2021-03-30T10:26:50+02:00</time>
      </trkpt>
      <trkpt lat="48.33378" lon="7.21117">
        <ele>624</ele>
        <time>2021-03-30T10:26:55+02:00</time>
      </trkpt>
      <trkpt lat="48.33381" lon="7.21089">
        <ele>625</ele>
        <time>2021-03-30T10:27:00+02:00</time>
      </trkpt>
      <trkpt lat="48.33387" lon="7.21059">
        <ele>624</ele>
        <time>2021-03-30T10:27:05+02:00</time>
      </trkpt>
      <trkpt lat="48.33397" lon="7.21023">
        <ele>623</ele>
        <time>2021-03-30T10:27:10+02:00</time>
      </trkpt>
      <trkpt lat="48.33403" lon="7.20998">
        <ele>624</ele>
        <time>2021-03-30T10:27:15+02:00</time>
      </trkpt>
      <trkpt lat="48.33412" lon="7.20966">
        <ele>623</ele>
        <time>2021-03-30T10:27:20+02:00</time>
      </trkpt>
      <trkpt lat="48.33421" lon="7.2093">
        <ele>622</ele>
        <time>2021-03-30T10:27:25+02:00</time>
      </trkpt>
      <trkpt lat="48.33427" lon="7.2089">
        <ele>620</ele>
        <time>2021-03-30T10:27:30+02:00</time>
      </trkpt>
      <trkpt lat="48.33431" lon="7.20848">
        <ele>619</ele>
        <time>2021-03-30T10:27:35+02:00</time>
      </trkpt>
      <trkpt lat="48.33435" lon="7.20816">
        <ele>618</ele>
        <time>2021-03-30T10:27:40+02:00</time>
      </trkpt>
      <trkpt lat="48.33445" lon="7.20775">
        <ele>615</ele>
        <time>2021-03-30T10:27:45+02:00</time>
      </trkpt>
      <trkpt lat="48.33454" lon="7.20735">
        <ele>616</ele>
        <time>2021-03-30T10:27:50+02:00</time>
      </trkpt>
      <trkpt lat="48.33457" lon="7.20717">
        <ele>616</ele>
        <time>2021-03-30T10:27:55+02:00</time>
      </trkpt>
      <trkpt lat="48.33458" lon="7.20693">
        <ele>616</ele>
        <time>2021-03-30T10:28:00+02:00</time>
      </trkpt>
      <trkpt lat="48.33459" lon="7.20652">
        <ele>616</ele>
        <time>2021-03-30T10:28:05+02:00</time>
      </trkpt>
      <trkpt lat="48.33459" lon="7.20633">
        <ele>616</ele>
        <time>2021-03-30T10:28:10+02:00</time>
      </trkpt>
      <trkpt lat="48.33461" lon="7.20615">
        <ele>616</ele>
        <time>2021-03-30T10:28:15+02:00</time>
      </trkpt>
      <trkpt lat="48.33469" lon="7.20592">
        <ele>617</ele>
        <time>2021-03-30T10:28:20+02:00</time>
      </trkpt>
      <trkpt lat="48.33479" lon="7.20573">
        <ele>619</ele>
        <time>2021-03-30T10:28:25+02:00</time>
      </trkpt>
      <trkpt lat="48.3349" lon="7.2056">
        <ele>621</ele>
        <time>2021-03-30T10:28:30+02:00</time>
      </trkpt>
      <trkpt lat="48.33498" lon="7.20552">
        <ele>622</ele>
        <time>2021-03-30T10:28:35+02:00</time>
      </trkpt>
      <trkpt lat="48.33516" lon="7.20551">
        <ele>626</ele>
        <time>2021-03-30T10:28:40+02:00</time>
      </trkpt>
      <trkpt lat="48.33529" lon="7.20549">
        <ele>629</ele>
        <time>2021-03-30T10:28:45+02:00</time>
      </trkpt>
      <trkpt lat="48.33537" lon="7.20545">
        <ele>631</ele>
        <time>2021-03-30T10:28:50+02:00</time>
      </trkpt>
      <trkpt lat="48.33544" lon="7.20538">
        <ele>632</ele>
        <time>2021-03-30T10:28:55+02:00</time>
      </trkpt>
      <trkpt lat="48.33548" lon="7.20526">
        <ele>632</ele>
        <time>2021-03-30T10:29:00+02:00</time>
      </trkpt>
      <trkpt lat="48.3355" lon="7.20511">
        <ele>632</ele>
        <time>2021-03-30T10:29:05+02:00</time>
      </trkpt>
      <trkpt lat="48.33559" lon="7.20489">
        <ele>632</ele>
        <time>2021-03-30T10:29:10+02:00</time>
      </trkpt>
      <trkpt lat="48.33573" lon="7.20467">
        <ele>632</ele>
        <time>2021-03-30T10:29:15+02:00</time>
      </trkpt>
      <trkpt lat="48.3358" lon="7.20446">
        <ele>630</ele>
        <time>2021-03-30T10:29:20+02:00</time>
      </trkpt>
      <trkpt lat="48.33585" lon="7.2043">
        <ele>629</ele>
        <time>2021-03-30T10:29:25+02:00</time>
      </trkpt>
      <trkpt lat="48.3359" lon="7.20418">
        <ele>629</ele>
        <time>2021-03-30T10:29:30+02:00</time>
      </trkpt>
      <trkpt lat="48.33615" lon="7.20372">
        <ele>632</ele>
        <time>2021-03-30T10:29:35+02:00</time>
      </trkpt>
      <trkpt lat="48.3363" lon="7.20343">
        <ele>635</ele>
        <time>2021-03-30T10:29:40+02:00</time>
      </trkpt>
      <trkpt lat="48.33641" lon="7.20322">
        <ele>637</ele>
        <time>2021-03-30T10:29:45+02:00</time>
      </trkpt>
      <trkpt lat="48.33659" lon="7.20273">
        <ele>640</ele>
        <time>2021-03-30T10:29:50+02:00</time>
      </trkpt>
      <trkpt lat="48.33667" lon="7.20241">
        <ele>641</ele>
        <time>2021-03-30T10:29:55+02:00</time>
      </trkpt>
      <trkpt lat="48.33676" lon="7.20193">
        <ele>641</ele>
        <time>2021-03-30T10:30:00+02:00</time>
      </trkpt>
      <trkpt lat="48.33684" lon="7.20146">
        <ele>640</ele>
        <time>2021-03-30T10:30:05+02:00</time>
      </trkpt>
      <trkpt lat="48.33691" lon="7.20101">
        <ele>639</ele>
        <time>2021-03-30T10:30:10+02:00</time>
      </trkpt>
      <trkpt lat="48.337" lon="7.20046">
        <ele>644</ele>
        <time>2021-03-30T10:30:15+02:00</time>
      </trkpt>
      <trkpt lat="48.33705" lon="7.20017">
        <ele>648</ele>
        <time>2021-03-30T10:30:20+02:00</time>
      </trkpt>
      <trkpt lat="48.33705" lon="7.19996">
        <ele>650</ele>
        <time>2021-03-30T10:30:25+02:00</time>
      </trkpt>
      <trkpt lat="48.33703" lon="7.19982">
        <ele>654</ele>
        <time>2021-03-30T10:30:30+02:00</time>
      </trkpt>
      <trkpt lat="48.33697" lon="7.19969">
        <ele>656</ele>
        <time>2021-03-30T10:30:35+02:00</time>
      </trkpt>
      <trkpt lat="48.33689" lon="7.19961">
        <ele>656</ele>
        <time>2021-03-30T10:30:40+02:00</time>
      </trkpt>
      <trkpt lat="48.33676" lon="7.19953">
        <ele>654</ele>
        <time>2021-03-30T10:30:45+02:00</time>
      </trkpt>
      <trkpt lat="48.33659" lon="7.19948">
        <ele>651</ele>
        <time>2021-03-30T10:30:50+02:00</time>
      </trkpt>
      <trkpt lat="48.33642" lon="7.19943">
        <ele>648</ele>
        <time>2021-03-30T10:30:55+02:00</time>
      </trkpt>
      <trkpt lat="48.33634" lon="7.19939">
        <ele>647</ele>
        <time>2021-03-30T10:31:00+02:00</time>
      </trkpt>
      <trkpt lat="48.33626" lon="7.1993">
        <ele>649</ele>
        <time>2021-03-30T10:31:05+02:00</time>
      </trkpt>
      <trkpt lat="48.33613" lon="7.19915">
        <ele>651</ele>
        <time>2021-03-30T10:31:10+02:00</time>
      </trkpt>
      <trkpt lat="48.336" lon="7.19906">
        <ele>649</ele>
        <time>2021-03-30T10:31:15+02:00</time>
      </trkpt>
      <trkpt lat="48.33581" lon="7.19894">
        <ele>646</ele>
        <time>2021-03-30T10:31:20+02:00</time>
      </trkpt>
      <trkpt lat="48.33567" lon="7.19881">
        <ele>645</ele>
        <time>2021-03-30T10:31:25+02:00</time>
      </trkpt>
      <trkpt lat="48.33557" lon="7.19859">
        <ele>645</ele>
        <time>2021-03-30T10:31:30+02:00</time>
      </trkpt>
      <trkpt lat="48.33548" lon="7.19825">
        <ele>646</ele>
        <time>2021-03-30T10:31:35+02:00</time>
      </trkpt>
      <trkpt lat="48.33545" lon="7.19801">
        <ele>643</ele>
        <time>2021-03-30T10:31:40+02:00</time>
      </trkpt>
      <trkpt lat="48.33549" lon="7.19779">
        <ele>644</ele>
        <time>2021-03-30T10:31:45+02:00</time>
      </trkpt>
      <trkpt lat="48.33569" lon="7.19733">
        <ele>648</ele>
        <time>2021-03-30T10:31:50+02:00</time>
      </trkpt>
      <trkpt lat="48.33581" lon="7.19707">
        <ele>650</ele>
        <time>2021-03-30T10:31:55+02:00</time>
      </trkpt>
      <trkpt lat="48.3359" lon="7.1968">
        <ele>651</ele>
        <time>2021-03-30T10:32:00+02:00</time>
      </trkpt>
      <trkpt lat="48.33597" lon="7.19666">
        <ele>652</ele>
        <time>2021-03-30T10:32:05+02:00</time>
      </trkpt>
      <trkpt lat="48.33617" lon="7.19623">
        <ele>656</ele>
        <time>2021-03-30T10:32:10+02:00</time>
      </trkpt>
      <trkpt lat="48.33656" lon="7.19565">
        <ele>661</ele>
        <time>2021-03-30T10:32:15+02:00</time>
      </trkpt>
      <trkpt lat="48.33711" lon="7.19523">
        <ele>665</ele>
        <time>2021-03-30T10:32:20+02:00</time>
      </trkpt>
      <trkpt lat="48.33729" lon="7.19507">
        <ele>665</ele>
        <time>2021-03-30T10:32:25+02:00</time>
      </trkpt>
      <trkpt lat="48.33742" lon="7.19489">
        <ele>664</ele>
        <time>2021-03-30T10:32:30+02:00</time>
      </trkpt>
      <trkpt lat="48.33768" lon="7.19442">
        <ele>662</ele>
        <time>2021-03-30T10:32:35+02:00</time>
      </trkpt>
      <trkpt lat="48.33784" lon="7.19421">
        <ele>661</ele>
        <time>2021-03-30T10:32:40+02:00</time>
      </trkpt>
      <trkpt lat="48.33796" lon="7.19404">
        <ele>660</ele>
        <time>2021-03-30T10:32:45+02:00</time>
      </trkpt>
      <trkpt lat="48.33825" lon="7.1938">
        <ele>660</ele>
        <time>2021-03-30T10:32:50+02:00</time>
      </trkpt>
      <trkpt lat="48.33834" lon="7.19375">
        <ele>661</ele>
        <time>2021-03-30T10:32:55+02:00</time>
      </trkpt>
      <trkpt lat="48.33854" lon="7.19367">
        <ele>661</ele>
        <time>2021-03-30T10:33:00+02:00</time>
      </trkpt>
      <trkpt lat="48.33862" lon="7.19356">
        <ele>659</ele>
        <time>2021-03-30T10:33:05+02:00</time>
      </trkpt>
      <trkpt lat="48.33866" lon="7.19349">
        <ele>658</ele>
        <time>2021-03-30T10:33:10+02:00</time>
      </trkpt>
      <trkpt lat="48.33903" lon="7.19328">
        <ele>656</ele>
        <time>2021-03-30T10:33:15+02:00</time>
      </trkpt>
      <trkpt lat="48.33932" lon="7.19305">
        <ele>657</ele>
        <time>2021-03-30T10:33:20+02:00</time>
      </trkpt>
      <trkpt lat="48.33945" lon="7.19293">
        <ele>658</ele>
        <time>2021-03-30T10:33:25+02:00</time>
      </trkpt>
      <trkpt lat="48.33976" lon="7.19248">
        <ele>659</ele>
        <time>2021-03-30T10:33:30+02:00</time>
      </trkpt>
      <trkpt lat="48.34027" lon="7.19158">
        <ele>663</ele>
        <time>2021-03-30T10:33:35+02:00</time>
      </trkpt>
      <trkpt lat="48.3406" lon="7.19097">
        <ele>663</ele>
        <time>2021-03-30T10:33:40+02:00</time>
      </trkpt>
      <trkpt lat="48.34078" lon="7.19063">
        <ele>663</ele>
        <time>2021-03-30T10:33:45+02:00</time>
      </trkpt>
      <trkpt lat="48.34091" lon="7.19012">
        <ele>665</ele>
        <time>2021-03-30T10:33:50+02:00</time>
      </trkpt>
      <trkpt lat="48.34094" lon="7.18995">
        <ele>667</ele>
        <time>2021-03-30T10:33:55+02:00</time>
      </trkpt>
      <trkpt lat="48.34097" lon="7.18952">
        <ele>671</ele>
        <time>2021-03-30T10:34:00+02:00</time>
      </trkpt>
      <trkpt lat="48.34094" lon="7.18916">
        <ele>675</ele>
        <time>2021-03-30T10:34:05+02:00</time>
      </trkpt>
      <trkpt lat="48.34084" lon="7.18846">
        <ele>686</ele>
        <time>2021-03-30T10:34:10+02:00</time>
      </trkpt>
      <trkpt lat="48.34083" lon="7.18822">
        <ele>689</ele>
        <time>2021-03-30T10:34:15+02:00</time>
      </trkpt>
      <trkpt lat="48.34072" lon="7.18804">
        <ele>688</ele>
        <time>2021-03-30T10:34:20+02:00</time>
      </trkpt>
      <trkpt lat="48.34053" lon="7.18772">
        <ele>686</ele>
        <time>2021-03-30T10:34:25+02:00</time>
      </trkpt>
      <trkpt lat="48.34033" lon="7.18746">
        <ele>684</ele>
        <time>2021-03-30T10:34:30+02:00</time>
      </trkpt>
      <trkpt lat="48.34013" lon="7.18727">
        <ele>681</ele>
        <time>2021-03-30T10:34:35+02:00</time>
      </trkpt>
      <trkpt lat="48.33992" lon="7.18713">
        <ele>679</ele>
        <time>2021-03-30T10:34:40+02:00</time>
      </trkpt>
      <trkpt lat="48.33976" lon="7.18697">
        <ele>677</ele>
        <time>2021-03-30T10:34:45+02:00</time>
      </trkpt>
      <trkpt lat="48.33966" lon="7.18675">
        <ele>676</ele>
        <time>2021-03-30T10:34:50+02:00</time>
      </trkpt>
      <trkpt lat="48.33959" lon="7.18647">
        <ele>678</ele>
        <time>2021-03-30T10:34:55+02:00</time>
      </trkpt>
      <trkpt lat="48.33953" lon="7.18627">
        <ele>679</ele>
        <time>2021-03-30T10:35:00+02:00</time>
      </trkpt>
      <trkpt lat="48.33943" lon="7.18605">
        <ele>679</ele>
        <time>2021-03-30T10:35:05+02:00</time>
      </trkpt>
      <trkpt lat="48.33932" lon="7.18592">
        <ele>678</ele>
        <time>2021-03-30T10:35:10+02:00</time>
      </trkpt>
      <trkpt lat="48.33891" lon="7.18562">
        <ele>674</ele>
        <time>2021-03-30T10:35:15+02:00</time>
      </trkpt>
      <trkpt lat="48.33843" lon="7.18532">
        <ele>669</ele>
        <time>2021-03-30T10:35:20+02:00</time>
      </trkpt>
      <trkpt lat="48.33833" lon="7.18527">
        <ele>668</ele>
        <time>2021-03-30T10:35:25+02:00</time>
      </trkpt>
      <trkpt lat="48.33772" lon="7.18522">
        <ele>669</ele>
        <time>2021-03-30T10:35:30+02:00</time>
      </trkpt>
      <trkpt lat="48.33729" lon="7.18514">
        <ele>670</ele>
        <time>2021-03-30T10:35:35+02:00</time>
      </trkpt>
      <trkpt lat="48.33723" lon="7.18503">
        <ele>672</ele>
        <time>2021-03-30T10:35:40+02:00</time>
      </trkpt>
      <trkpt lat="48.33688" lon="7.18482">
        <ele>673</ele>
        <time>2021-03-30T10:35:45+02:00</time>
      </trkpt>
      <trkpt lat="48.3367" lon="7.18482">
        <ele>673</ele>
        <time>2021-03-30T10:35:50+02:00</time>
      </trkpt>
      <trkpt lat="48.33655" lon="7.1848">
        <ele>672</ele>
        <time>2021-03-30T10:35:55+02:00</time>
      </trkpt>
      <trkpt lat="48.33639" lon="7.18474">
        <ele>670</ele>
        <time>2021-03-30T10:36:00+02:00</time>
      </trkpt>
      <trkpt lat="48.3362" lon="7.18467">
        <ele>669</ele>
        <time>2021-03-30T10:36:05+02:00</time>
      </trkpt>
      <trkpt lat="48.33614" lon="7.18464">
        <ele>668</ele>
        <time>2021-03-30T10:36:10+02:00</time>
      </trkpt>
      <trkpt lat="48.3361" lon="7.18459">
        <ele>668</ele>
        <time>2021-03-30T10:36:15+02:00</time>
      </trkpt>
      <trkpt lat="48.33598" lon="7.18459">
        <ele>667</ele>
        <time>2021-03-30T10:36:20+02:00</time>
      </trkpt>
      <trkpt lat="48.33586" lon="7.18453">
        <ele>666</ele>
        <time>2021-03-30T10:36:25+02:00</time>
      </trkpt>
      <trkpt lat="48.33572" lon="7.18443">
        <ele>663</ele>
        <time>2021-03-30T10:36:30+02:00</time>
      </trkpt>
      <trkpt lat="48.3354" lon="7.18417">
        <ele>658</ele>
        <time>2021-03-30T10:36:35+02:00</time>
      </trkpt>
      <trkpt lat="48.33514" lon="7.18393">
        <ele>654</ele>
        <time>2021-03-30T10:36:40+02:00</time>
      </trkpt>
      <trkpt lat="48.33508" lon="7.18386">
        <ele>654</ele>
        <time>2021-03-30T10:36:45+02:00</time>
      </trkpt>
      <trkpt lat="48.33496" lon="7.18371">
        <ele>652</ele>
        <time>2021-03-30T10:36:50+02:00</time>
      </trkpt>
      <trkpt lat="48.33487" lon="7.18357">
        <ele>651</ele>
        <time>2021-03-30T10:36:55+02:00</time>
      </trkpt>
      <trkpt lat="48.33478" lon="7.18333">
        <ele>650</ele>
        <time>2021-03-30T10:37:00+02:00</time>
      </trkpt>
      <trkpt lat="48.33472" lon="7.18314">
        <ele>648</ele>
        <time>2021-03-30T10:37:05+02:00</time>
      </trkpt>
      <trkpt lat="48.33458" lon="7.18293">
        <ele>645</ele>
        <time>2021-03-30T10:37:10+02:00</time>
      </trkpt>
      <trkpt lat="48.33442" lon="7.18268">
        <ele>641</ele>
        <time>2021-03-30T10:37:15+02:00</time>
      </trkpt>
      <trkpt lat="48.33437" lon="7.18259">
        <ele>640</ele>
        <time>2021-03-30T10:37:20+02:00</time>
      </trkpt>
      <trkpt lat="48.33424" lon="7.18243">
        <ele>637</ele>
        <time>2021-03-30T10:37:25+02:00</time>
      </trkpt>
      <trkpt lat="48.33412" lon="7.18225">
        <ele>634</ele>
        <time>2021-03-30T10:37:30+02:00</time>
      </trkpt>
      <trkpt lat="48.33403" lon="7.18208">
        <ele>632</ele>
        <time>2021-03-30T10:37:35+02:00</time>
      </trkpt>
      <trkpt lat="48.33391" lon="7.1819">
        <ele>630</ele>
        <time>2021-03-30T10:37:40+02:00</time>
      </trkpt>
      <trkpt lat="48.33378" lon="7.18168">
        <ele>628</ele>
        <time>2021-03-30T10:37:45+02:00</time>
      </trkpt>
      <trkpt lat="48.33367" lon="7.18168">
        <ele>626</ele>
        <time>2021-03-30T10:37:50+02:00</time>
      </trkpt>
      <trkpt lat="48.33358" lon="7.18167">
        <ele>624</ele>
        <time>2021-03-30T10:37:55+02:00</time>
      </trkpt>
      <trkpt lat="48.3335" lon="7.18169">
        <ele>622</ele>
        <time>2021-03-30T10:38:00+02:00</time>
      </trkpt>
      <trkpt lat="48.33345" lon="7.18174">
        <ele>621</ele>
        <time>2021-03-30T10:38:05+02:00</time>
      </trkpt>
      <trkpt lat="48.33341" lon="7.18182">
        <ele>620</ele>
        <time>2021-03-30T10:38:10+02:00</time>
      </trkpt>
      <trkpt lat="48.33311" lon="7.18181">
        <ele>617</ele>
        <time>2021-03-30T10:38:15+02:00</time>
      </trkpt>
      <trkpt lat="48.33277" lon="7.18181">
        <ele>614</ele>
        <time>2021-03-30T10:38:20+02:00</time>
      </trkpt>
      <trkpt lat="48.33245" lon="7.18182">
        <ele>613</ele>
        <time>2021-03-30T10:38:25+02:00</time>
      </trkpt>
      <trkpt lat="48.33178" lon="7.18186">
        <ele>620</ele>
        <time>2021-03-30T10:38:30+02:00</time>
      </trkpt>
      <trkpt lat="48.33165" lon="7.18127">
        <ele>622</ele>
        <time>2021-03-30T10:38:35+02:00</time>
      </trkpt>
      <trkpt lat="48.33161" lon="7.18071">
        <ele>622</ele>
        <time>2021-03-30T10:38:40+02:00</time>
      </trkpt>
      <trkpt lat="48.33158" lon="7.18068">
        <ele>623</ele>
        <time>2021-03-30T10:38:45+02:00</time>
      </trkpt>
      <trkpt lat="48.33126" lon="7.1805">
        <ele>628</ele>
        <time>2021-03-30T10:38:50+02:00</time>
      </trkpt>
      <trkpt lat="48.33092" lon="7.18027">
        <ele>633</ele>
        <time>2021-03-30T10:38:55+02:00</time>
      </trkpt>
      <trkpt lat="48.33038" lon="7.18004">
        <ele>642</ele>
        <time>2021-03-30T10:39:00+02:00</time>
      </trkpt>
      <trkpt lat="48.33016" lon="7.17993">
        <ele>645</ele>
        <time>2021-03-30T10:39:05+02:00</time>
      </trkpt>
      <trkpt lat="48.32995" lon="7.17976">
        <ele>647</ele>
        <time>2021-03-30T10:39:10+02:00</time>
      </trkpt>
      <trkpt lat="48.32979" lon="7.17962">
        <ele>647</ele>
        <time>2021-03-30T10:39:15+02:00</time>
      </trkpt>
      <trkpt lat="48.32937" lon="7.17944">
        <ele>650</ele>
        <time>2021-03-30T10:39:20+02:00</time>
      </trkpt>
      <trkpt lat="48.32919" lon="7.1792">
        <ele>652</ele>
        <time>2021-03-30T10:39:25+02:00</time>
      </trkpt>
      <trkpt lat="48.32906" lon="7.17898">
        <ele>650</ele>
        <time>2021-03-30T10:39:30+02:00</time>
      </trkpt>
      <trkpt lat="48.32896" lon="7.17875">
        <ele>649</ele>
        <time>2021-03-30T10:39:35+02:00</time>
      </trkpt>
      <trkpt lat="48.32887" lon="7.17853">
        <ele>649</ele>
        <time>2021-03-30T10:39:40+02:00</time>
      </trkpt>
      <trkpt lat="48.32872" lon="7.17829">
        <ele>649</ele>
        <time>2021-03-30T10:39:45+02:00</time>
      </trkpt>
      <trkpt lat="48.32864" lon="7.17816">
        <ele>649</ele>
        <time>2021-03-30T10:39:50+02:00</time>
      </trkpt>
      <trkpt lat="48.32838" lon="7.17786">
        <ele>651</ele>
        <time>2021-03-30T10:39:55+02:00</time>
      </trkpt>
      <trkpt lat="48.32813" lon="7.17754">
        <ele>647</ele>
        <time>2021-03-30T10:40:00+02:00</time>
      </trkpt>
      <trkpt lat="48.32778" lon="7.1775">
        <ele>638</ele>
        <time>2021-03-30T10:40:05+02:00</time>
      </trkpt>
      <trkpt lat="48.32755" lon="7.17749">
        <ele>632</ele>
        <time>2021-03-30T10:40:10+02:00</time>
      </trkpt>
      <trkpt lat="48.32682" lon="7.17737">
        <ele>611</ele>
        <time>2021-03-30T10:40:15+02:00</time>
      </trkpt>
      <trkpt lat="48.32618" lon="7.17742">
        <ele>608</ele>
        <time>2021-03-30T10:40:20+02:00</time>
      </trkpt>
      <trkpt lat="48.32595" lon="7.17759">
        <ele>609</ele>
        <time>2021-03-30T10:40:25+02:00</time>
      </trkpt>
      <trkpt lat="48.32595" lon="7.17774">
        <ele>609</ele>
        <time>2021-03-30T10:40:30+02:00</time>
      </trkpt>
      <trkpt lat="48.326" lon="7.178">
        <ele>608</ele>
        <time>2021-03-30T10:40:35+02:00</time>
      </trkpt>
      <trkpt lat="48.3261" lon="7.17839">
        <ele>608</ele>
        <time>2021-03-30T10:40:40+02:00</time>
      </trkpt>
      <trkpt lat="48.32617" lon="7.17864">
        <ele>607</ele>
        <time>2021-03-30T10:40:45+02:00</time>
      </trkpt>
      <trkpt lat="48.32621" lon="7.17895">
        <ele>606</ele>
        <time>2021-03-30T10:40:50+02:00</time>
      </trkpt>
      <trkpt lat="48.32622" lon="7.17925">
        <ele>606</ele>
        <time>2021-03-30T10:40:55+02:00</time>
      </trkpt>
      <trkpt lat="48.32621" lon="7.1795">
        <ele>607</ele>
        <time>2021-03-30T10:41:00+02:00</time>
      </trkpt>
      <trkpt lat="48.32619" lon="7.17971">
        <ele>607</ele>
        <time>2021-03-30T10:41:05+02:00</time>
      </trkpt>
      <trkpt lat="48.32615" lon="7.18004">
        <ele>608</ele>
        <time>2021-03-30T10:41:10+02:00</time>
      </trkpt>
      <trkpt lat="48.32608" lon="7.18069">
        <ele>609</ele>
        <time>2021-03-30T10:41:15+02:00</time>
      </trkpt>
      <trkpt lat="48.32605" lon="7.18123">
        <ele>608</ele>
        <time>2021-03-30T10:41:20+02:00</time>
      </trkpt>
      <trkpt lat="48.32601" lon="7.18186">
        <ele>608</ele>
        <time>2021-03-30T10:41:25+02:00</time>
      </trkpt>
      <trkpt lat="48.32595" lon="7.1824">
        <ele>610</ele>
        <time>2021-03-30T10:41:30+02:00</time>
      </trkpt>
      <trkpt lat="48.32592" lon="7.18257">
        <ele>610</ele>
        <time>2021-03-30T10:41:35+02:00</time>
      </trkpt>
      <trkpt lat="48.32582" lon="7.18291">
        <ele>612</ele>
        <time>2021-03-30T10:41:40+02:00</time>
      </trkpt>
      <trkpt lat="48.32582" lon="7.18317">
        <ele>611</ele>
        <time>2021-03-30T10:41:45+02:00</time>
      </trkpt>
      <trkpt lat="48.32579" lon="7.18406">
        <ele>611</ele>
        <time>2021-03-30T10:41:50+02:00</time>
      </trkpt>
      <trkpt lat="48.32578" lon="7.18447">
        <ele>612</ele>
        <time>2021-03-30T10:41:55+02:00</time>
      </trkpt>
      <trkpt lat="48.3258" lon="7.18512">
        <ele>614</ele>
        <time>2021-03-30T10:42:00+02:00</time>
      </trkpt>
      <trkpt lat="48.32582" lon="7.18592">
        <ele>623</ele>
        <time>2021-03-30T10:42:05+02:00</time>
      </trkpt>
      <trkpt lat="48.32585" lon="7.18642">
        <ele>623</ele>
        <time>2021-03-30T10:42:10+02:00</time>
      </trkpt>
      <trkpt lat="48.32592" lon="7.18718">
        <ele>623</ele>
        <time>2021-03-30T10:42:15+02:00</time>
      </trkpt>
      <trkpt lat="48.32591" lon="7.18745">
        <ele>624</ele>
        <time>2021-03-30T10:42:20+02:00</time>
      </trkpt>
      <trkpt lat="48.32589" lon="7.188">
        <ele>624</ele>
        <time>2021-03-30T10:42:25+02:00</time>
      </trkpt>
      <trkpt lat="48.32586" lon="7.1882">
        <ele>624</ele>
        <time>2021-03-30T10:42:30+02:00</time>
      </trkpt>
      <trkpt lat="48.32579" lon="7.1886">
        <ele>623</ele>
        <time>2021-03-30T10:42:35+02:00</time>
      </trkpt>
      <trkpt lat="48.32573" lon="7.18889">
        <ele>623</ele>
        <time>2021-03-30T10:42:40+02:00</time>
      </trkpt>
      <trkpt lat="48.32567" lon="7.18916">
        <ele>622</ele>
        <time>2021-03-30T10:42:45+02:00</time>
      </trkpt>
      <trkpt lat="48.32561" lon="7.18957">
        <ele>623</ele>
        <time>2021-03-30T10:42:50+02:00</time>
      </trkpt>
      <trkpt lat="48.32555" lon="7.18998">
        <ele>623</ele>
        <time>2021-03-30T10:42:55+02:00</time>
      </trkpt>
      <trkpt lat="48.32556" lon="7.19043">
        <ele>623</ele>
        <time>2021-03-30T10:43:00+02:00</time>
      </trkpt>
      <trkpt lat="48.32559" lon="7.19084">
        <ele>622</ele>
        <time>2021-03-30T10:43:05+02:00</time>
      </trkpt>
      <trkpt lat="48.3256" lon="7.1911">
        <ele>623</ele>
        <time>2021-03-30T10:43:10+02:00</time>
      </trkpt>
      <trkpt lat="48.32561" lon="7.19141">
        <ele>623</ele>
        <time>2021-03-30T10:43:15+02:00</time>
      </trkpt>
      <trkpt lat="48.32568" lon="7.19178">
        <ele>621</ele>
        <time>2021-03-30T10:43:20+02:00</time>
      </trkpt>
      <trkpt lat="48.32574" lon="7.19205">
        <ele>621</ele>
        <time>2021-03-30T10:43:25+02:00</time>
      </trkpt>
      <trkpt lat="48.32575" lon="7.19223">
        <ele>622</ele>
        <time>2021-03-30T10:43:30+02:00</time>
      </trkpt>
      <trkpt lat="48.32576" lon="7.19244">
        <ele>623</ele>
        <time>2021-03-30T10:43:35+02:00</time>
      </trkpt>
      <trkpt lat="48.32578" lon="7.19281">
        <ele>624</ele>
        <time>2021-03-30T10:43:40+02:00</time>
      </trkpt>
      <trkpt lat="48.32579" lon="7.19315">
        <ele>625</ele>
        <time>2021-03-30T10:43:45+02:00</time>
      </trkpt>
      <trkpt lat="48.32583" lon="7.19375">
        <ele>626</ele>
        <time>2021-03-30T10:43:50+02:00</time>
      </trkpt>
      <trkpt lat="48.32584" lon="7.19395">
        <ele>625</ele>
        <time>2021-03-30T10:43:55+02:00</time>
      </trkpt>
      <trkpt lat="48.32595" lon="7.19456">
        <ele>622</ele>
        <time>2021-03-30T10:44:00+02:00</time>
      </trkpt>
      <trkpt lat="48.32606" lon="7.19514">
        <ele>619</ele>
        <time>2021-03-30T10:44:05+02:00</time>
      </trkpt>
      <trkpt lat="48.32622" lon="7.19581">
        <ele>615</ele>
        <time>2021-03-30T10:44:10+02:00</time>
      </trkpt>
      <trkpt lat="48.32628" lon="7.19608">
        <ele>614</ele>
        <time>2021-03-30T10:44:15+02:00</time>
      </trkpt>
      <trkpt lat="48.32634" lon="7.19643">
        <ele>612</ele>
        <time>2021-03-30T10:44:20+02:00</time>
      </trkpt>
      <trkpt lat="48.32642" lon="7.19669">
        <ele>611</ele>
        <time>2021-03-30T10:44:25+02:00</time>
      </trkpt>
      <trkpt lat="48.32665" lon="7.19781">
        <ele>611</ele>
        <time>2021-03-30T10:44:30+02:00</time>
      </trkpt>
      <trkpt lat="48.32681" lon="7.19866">
        <ele>606</ele>
        <time>2021-03-30T10:44:35+02:00</time>
      </trkpt>
      <trkpt lat="48.32684" lon="7.19882">
        <ele>605</ele>
        <time>2021-03-30T10:44:40+02:00</time>
      </trkpt>
      <trkpt lat="48.32682" lon="7.19898">
        <ele>604</ele>
        <time>2021-03-30T10:44:45+02:00</time>
      </trkpt>
      <trkpt lat="48.32673" lon="7.19906">
        <ele>602</ele>
        <time>2021-03-30T10:44:50+02:00</time>
      </trkpt>
      <trkpt lat="48.32664" lon="7.19911">
        <ele>601</ele>
        <time>2021-03-30T10:44:55+02:00</time>
      </trkpt>
      <trkpt lat="48.32656" lon="7.19908">
        <ele>598</ele>
        <time>2021-03-30T10:45:00+02:00</time>
      </trkpt>
      <trkpt lat="48.32647" lon="7.19901">
        <ele>596</ele>
        <time>2021-03-30T10:45:05+02:00</time>
      </trkpt>
      <trkpt lat="48.32642" lon="7.1989">
        <ele>596</ele>
        <time>2021-03-30T10:45:10+02:00</time>
      </trkpt>
      <trkpt lat="48.32631" lon="7.19866">
        <ele>596</ele>
        <time>2021-03-30T10:45:15+02:00</time>
      </trkpt>
      <trkpt lat="48.32624" lon="7.19841">
        <ele>597</ele>
        <time>2021-03-30T10:45:20+02:00</time>
      </trkpt>
      <trkpt lat="48.32617" lon="7.19814">
        <ele>599</ele>
        <time>2021-03-30T10:45:25+02:00</time>
      </trkpt>
      <trkpt lat="48.3261" lon="7.19791">
        <ele>601</ele>
        <time>2021-03-30T10:45:30+02:00</time>
      </trkpt>
      <trkpt lat="48.32606" lon="7.19781">
        <ele>602</ele>
        <time>2021-03-30T10:45:35+02:00</time>
      </trkpt>
      <trkpt lat="48.32596" lon="7.19756">
        <ele>605</ele>
        <time>2021-03-30T10:45:40+02:00</time>
      </trkpt>
      <trkpt lat="48.32587" lon="7.19734">
        <ele>608</ele>
        <time>2021-03-30T10:45:45+02:00</time>
      </trkpt>
      <trkpt lat="48.32576" lon="7.19709">
        <ele>610</ele>
        <time>2021-03-30T10:45:50+02:00</time>
      </trkpt>
      <trkpt lat="48.32565" lon="7.19686">
        <ele>612</ele>
        <time>2021-03-30T10:45:55+02:00</time>
      </trkpt>
      <trkpt lat="48.32559" lon="7.19673">
        <ele>613</ele>
        <time>2021-03-30T10:46:00+02:00</time>
      </trkpt>
      <trkpt lat="48.32553" lon="7.19645">
        <ele>615</ele>
        <time>2021-03-30T10:46:05+02:00</time>
      </trkpt>
      <trkpt lat="48.32544" lon="7.19624">
        <ele>617</ele>
        <time>2021-03-30T10:46:10+02:00</time>
      </trkpt>
      <trkpt lat="48.32524" lon="7.19591">
        <ele>618</ele>
        <time>2021-03-30T10:46:15+02:00</time>
      </trkpt>
      <trkpt lat="48.32506" lon="7.19562">
        <ele>620</ele>
        <time>2021-03-30T10:46:20+02:00</time>
      </trkpt>
      <trkpt lat="48.32499" lon="7.19548">
        <ele>621</ele>
        <time>2021-03-30T10:46:25+02:00</time>
      </trkpt>
      <trkpt lat="48.32497" lon="7.19539">
        <ele>622</ele>
        <time>2021-03-30T10:46:30+02:00</time>
      </trkpt>
      <trkpt lat="48.32493" lon="7.19518">
        <ele>624</ele>
        <time>2021-03-30T10:46:35+02:00</time>
      </trkpt>
      <trkpt lat="48.32492" lon="7.19499">
        <ele>627</ele>
        <time>2021-03-30T10:46:40+02:00</time>
      </trkpt>
      <trkpt lat="48.32494" lon="7.19466">
        <ele>629</ele>
        <time>2021-03-30T10:46:45+02:00</time>
      </trkpt>
      <trkpt lat="48.32498" lon="7.1944">
        <ele>632</ele>
        <time>2021-03-30T10:46:50+02:00</time>
      </trkpt>
      <trkpt lat="48.32501" lon="7.19419">
        <ele>634</ele>
        <time>2021-03-30T10:46:55+02:00</time>
      </trkpt>
      <trkpt lat="48.32501" lon="7.19397">
        <ele>635</ele>
        <time>2021-03-30T10:47:00+02:00</time>
      </trkpt>
      <trkpt lat="48.32496" lon="7.19361">
        <ele>638</ele>
        <time>2021-03-30T10:47:05+02:00</time>
      </trkpt>
      <trkpt lat="48.32487" lon="7.19335">
        <ele>638</ele>
        <time>2021-03-30T10:47:10+02:00</time>
      </trkpt>
      <trkpt lat="48.32477" lon="7.1932">
        <ele>639</ele>
        <time>2021-03-30T10:47:15+02:00</time>
      </trkpt>
      <trkpt lat="48.32466" lon="7.19309">
        <ele>640</ele>
        <time>2021-03-30T10:47:20+02:00</time>
      </trkpt>
      <trkpt lat="48.32442" lon="7.19295">
        <ele>641</ele>
        <time>2021-03-30T10:47:25+02:00</time>
      </trkpt>
      <trkpt lat="48.32426" lon="7.19293">
        <ele>641</ele>
        <time>2021-03-30T10:47:30+02:00</time>
      </trkpt>
      <trkpt lat="48.32397" lon="7.19284">
        <ele>639</ele>
        <time>2021-03-30T10:47:35+02:00</time>
      </trkpt>
      <trkpt lat="48.32366" lon="7.19256">
        <ele>643</ele>
        <time>2021-03-30T10:47:40+02:00</time>
      </trkpt>
      <trkpt lat="48.3235" lon="7.19239">
        <ele>644</ele>
        <time>2021-03-30T10:47:45+02:00</time>
      </trkpt>
      <trkpt lat="48.32328" lon="7.19228">
        <ele>643</ele>
        <time>2021-03-30T10:47:50+02:00</time>
      </trkpt>
      <trkpt lat="48.32313" lon="7.19223">
        <ele>645</ele>
        <time>2021-03-30T10:47:55+02:00</time>
      </trkpt>
      <trkpt lat="48.32298" lon="7.19225">
        <ele>646</ele>
        <time>2021-03-30T10:48:00+02:00</time>
      </trkpt>
      <trkpt lat="48.3229" lon="7.19228">
        <ele>645</ele>
        <time>2021-03-30T10:48:05+02:00</time>
      </trkpt>
      <trkpt lat="48.32278" lon="7.19233">
        <ele>645</ele>
        <time>2021-03-30T10:48:10+02:00</time>
      </trkpt>
      <trkpt lat="48.32267" lon="7.19233">
        <ele>645</ele>
        <time>2021-03-30T10:48:15+02:00</time>
      </trkpt>
      <trkpt lat="48.32244" lon="7.19229">
        <ele>647</ele>
        <time>2021-03-30T10:48:20+02:00</time>
      </trkpt>
      <trkpt lat="48.32232" lon="7.19233">
        <ele>646</ele>
        <time>2021-03-30T10:48:25+02:00</time>
      </trkpt>
      <trkpt lat="48.32221" lon="7.19238">
        <ele>645</ele>
        <time>2021-03-30T10:48:30+02:00</time>
      </trkpt>
      <trkpt lat="48.32214" lon="7.19248">
        <ele>643</ele>
        <time>2021-03-30T10:48:35+02:00</time>
      </trkpt>
      <trkpt lat="48.32199" lon="7.19268">
        <ele>636</ele>
        <time>2021-03-30T10:48:40+02:00</time>
      </trkpt>
      <trkpt lat="48.3219" lon="7.19272">
        <ele>636</ele>
        <time>2021-03-30T10:48:45+02:00</time>
      </trkpt>
      <trkpt lat="48.32181" lon="7.1927">
        <ele>637</ele>
        <time>2021-03-30T10:48:50+02:00</time>
      </trkpt>
      <trkpt lat="48.32167" lon="7.19267">
        <ele>639</ele>
        <time>2021-03-30T10:48:55+02:00</time>
      </trkpt>
      <trkpt lat="48.32142" lon="7.19248">
        <ele>640</ele>
        <time>2021-03-30T10:49:00+02:00</time>
      </trkpt>
      <trkpt lat="48.32131" lon="7.19238">
        <ele>640</ele>
        <time>2021-03-30T10:49:05+02:00</time>
      </trkpt>
      <trkpt lat="48.32118" lon="7.19227">
        <ele>640</ele>
        <time>2021-03-30T10:49:10+02:00</time>
      </trkpt>
      <trkpt lat="48.32104" lon="7.19205">
        <ele>641</ele>
        <time>2021-03-30T10:49:15+02:00</time>
      </trkpt>
      <trkpt lat="48.3209" lon="7.19179">
        <ele>642</ele>
        <time>2021-03-30T10:49:20+02:00</time>
      </trkpt>
      <trkpt lat="48.3207" lon="7.19146">
        <ele>645</ele>
        <time>2021-03-30T10:49:25+02:00</time>
      </trkpt>
      <trkpt lat="48.3205" lon="7.19125">
        <ele>649</ele>
        <time>2021-03-30T10:49:30+02:00</time>
      </trkpt>
      <trkpt lat="48.32039" lon="7.19117">
        <ele>651</ele>
        <time>2021-03-30T10:49:35+02:00</time>
      </trkpt>
      <trkpt lat="48.32023" lon="7.19117">
        <ele>652</ele>
        <time>2021-03-30T10:49:40+02:00</time>
      </trkpt>
      <trkpt lat="48.32003" lon="7.19123">
        <ele>653</ele>
        <time>2021-03-30T10:49:45+02:00</time>
      </trkpt>
      <trkpt lat="48.3198" lon="7.19132">
        <ele>661</ele>
        <time>2021-03-30T10:49:50+02:00</time>
      </trkpt>
      <trkpt lat="48.31979" lon="7.19149">
        <ele>659</ele>
        <time>2021-03-30T10:49:55+02:00</time>
      </trkpt>
      <trkpt lat="48.31971" lon="7.19168">
        <ele>660</ele>
        <time>2021-03-30T10:50:00+02:00</time>
      </trkpt>
      <trkpt lat="48.31955" lon="7.19208">
        <ele>660</ele>
        <time>2021-03-30T10:50:05+02:00</time>
      </trkpt>
      <trkpt lat="48.3195" lon="7.19234">
        <ele>658</ele>
        <time>2021-03-30T10:50:10+02:00</time>
      </trkpt>
      <trkpt lat="48.31943" lon="7.1928">
        <ele>651</ele>
        <time>2021-03-30T10:50:15+02:00</time>
      </trkpt>
      <trkpt lat="48.31941" lon="7.19321">
        <ele>643</ele>
        <time>2021-03-30T10:50:20+02:00</time>
      </trkpt>
      <trkpt lat="48.31939" lon="7.19359">
        <ele>637</ele>
        <time>2021-03-30T10:50:25+02:00</time>
      </trkpt>
      <trkpt lat="48.31938" lon="7.19418">
        <ele>628</ele>
        <time>2021-03-30T10:50:30+02:00</time>
      </trkpt>
      <trkpt lat="48.31938" lon="7.19454">
        <ele>623</ele>
        <time>2021-03-30T10:50:35+02:00</time>
      </trkpt>
      <trkpt lat="48.31943" lon="7.19525">
        <ele>612</ele>
        <time>2021-03-30T10:50:40+02:00</time>
      </trkpt>
      <trkpt lat="48.31949" lon="7.19571">
        <ele>606</ele>
        <time>2021-03-30T10:50:45+02:00</time>
      </trkpt>
      <trkpt lat="48.31962" lon="7.1962">
        <ele>597</ele>
        <time>2021-03-30T10:50:50+02:00</time>
      </trkpt>
      <trkpt lat="48.31975" lon="7.19656">
        <ele>589</ele>
        <time>2021-03-30T10:50:55+02:00</time>
      </trkpt>
      <trkpt lat="48.31982" lon="7.19672">
        <ele>585</ele>
        <time>2021-03-30T10:51:00+02:00</time>
      </trkpt>
      <trkpt lat="48.31991" lon="7.19704">
        <ele>579</ele>
        <time>2021-03-30T10:51:05+02:00</time>
      </trkpt>
      <trkpt lat="48.32001" lon="7.19742">
        <ele>573</ele>
        <time>2021-03-30T10:51:10+02:00</time>
      </trkpt>
      <trkpt lat="48.32009" lon="7.1978">
        <ele>569</ele>
        <time>2021-03-30T10:51:15+02:00</time>
      </trkpt>
      <trkpt lat="48.32022" lon="7.19828">
        <ele>564</ele>
        <time>2021-03-30T10:51:20+02:00</time>
      </trkpt>
      <trkpt lat="48.32034" lon="7.19874">
        <ele>556</ele>
        <time>2021-03-30T10:51:25+02:00</time>
      </trkpt>
      <trkpt lat="48.32049" lon="7.19926">
        <ele>548</ele>
        <time>2021-03-30T10:51:30+02:00</time>
      </trkpt>
      <trkpt lat="48.32052" lon="7.19913">
        <ele>548</ele>
        <time>2021-03-30T10:51:35+02:00</time>
      </trkpt>
      <trkpt lat="48.32054" lon="7.199">
        <ele>548</ele>
        <time>2021-03-30T10:51:40+02:00</time>
      </trkpt>
      <trkpt lat="48.32055" lon="7.1986">
        <ele>549</ele>
        <time>2021-03-30T10:51:45+02:00</time>
      </trkpt>
      <trkpt lat="48.32061" lon="7.19823">
        <ele>547</ele>
        <time>2021-03-30T10:51:50+02:00</time>
      </trkpt>
      <trkpt lat="48.32067" lon="7.19799">
        <ele>545</ele>
        <time>2021-03-30T10:51:55+02:00</time>
      </trkpt>
      <trkpt lat="48.32075" lon="7.19784">
        <ele>542</ele>
        <time>2021-03-30T10:52:00+02:00</time>
      </trkpt>
      <trkpt lat="48.32095" lon="7.19769">
        <ele>534</ele>
        <time>2021-03-30T10:52:05+02:00</time>
      </trkpt>
      <trkpt lat="48.32101" lon="7.19762">
        <ele>533</ele>
        <time>2021-03-30T10:52:10+02:00</time>
      </trkpt>
      <trkpt lat="48.32103" lon="7.19741">
        <ele>532</ele>
        <time>2021-03-30T10:52:15+02:00</time>
      </trkpt>
      <trkpt lat="48.32102" lon="7.19707">
        <ele>533</ele>
        <time>2021-03-30T10:52:20+02:00</time>
      </trkpt>
      <trkpt lat="48.32097" lon="7.19657">
        <ele>536</ele>
        <time>2021-03-30T10:52:25+02:00</time>
      </trkpt>
      <trkpt lat="48.32092" lon="7.19625">
        <ele>538</ele>
        <time>2021-03-30T10:52:30+02:00</time>
      </trkpt>
      <trkpt lat="48.32095" lon="7.19605">
        <ele>539</ele>
        <time>2021-03-30T10:52:35+02:00</time>
      </trkpt>
      <trkpt lat="48.32103" lon="7.19594">
        <ele>539</ele>
        <time>2021-03-30T10:52:40+02:00</time>
      </trkpt>
      <trkpt lat="48.32112" lon="7.19594">
        <ele>539</ele>
        <time>2021-03-30T10:52:45+02:00</time>
      </trkpt>
      <trkpt lat="48.32122" lon="7.1961">
        <ele>537</ele>
        <time>2021-03-30T10:52:50+02:00</time>
      </trkpt>
      <trkpt lat="48.32134" lon="7.19645">
        <ele>530</ele>
        <time>2021-03-30T10:52:55+02:00</time>
      </trkpt>
      <trkpt lat="48.32143" lon="7.19671">
        <ele>524</ele>
        <time>2021-03-30T10:53:00+02:00</time>
      </trkpt>
      <trkpt lat="48.32154" lon="7.19695">
        <ele>520</ele>
        <time>2021-03-30T10:53:05+02:00</time>
      </trkpt>
      <trkpt lat="48.32165" lon="7.19715">
        <ele>516</ele>
        <time>2021-03-30T10:53:10+02:00</time>
      </trkpt>
      <trkpt lat="48.32176" lon="7.19737">
        <ele>515</ele>
        <time>2021-03-30T10:53:15+02:00</time>
      </trkpt>
      <trkpt lat="48.32197" lon="7.19768">
        <ele>515</ele>
        <time>2021-03-30T10:53:20+02:00</time>
      </trkpt>
      <trkpt lat="48.32204" lon="7.19782">
        <ele>514</ele>
        <time>2021-03-30T10:53:25+02:00</time>
      </trkpt>
      <trkpt lat="48.32211" lon="7.19805">
        <ele>512</ele>
        <time>2021-03-30T10:53:30+02:00</time>
      </trkpt>
      <trkpt lat="48.32221" lon="7.19822">
        <ele>510</ele>
        <time>2021-03-30T10:53:35+02:00</time>
      </trkpt>
      <trkpt lat="48.3223" lon="7.19834">
        <ele>508</ele>
        <time>2021-03-30T10:53:40+02:00</time>
      </trkpt>
      <trkpt lat="48.32236" lon="7.19901">
        <ele>502</ele>
        <time>2021-03-30T10:53:45+02:00</time>
      </trkpt>
      <trkpt lat="48.32239" lon="7.19936">
        <ele>498</ele>
        <time>2021-03-30T10:53:50+02:00</time>
      </trkpt>
      <trkpt lat="48.32248" lon="7.19968">
        <ele>495</ele>
        <time>2021-03-30T10:53:55+02:00</time>
      </trkpt>
      <trkpt lat="48.3225" lon="7.19997">
        <ele>492</ele>
        <time>2021-03-30T10:54:00+02:00</time>
      </trkpt>
      <trkpt lat="48.32254" lon="7.20029">
        <ele>489</ele>
        <time>2021-03-30T10:54:05+02:00</time>
      </trkpt>
      <trkpt lat="48.32261" lon="7.20062">
        <ele>487</ele>
        <time>2021-03-30T10:54:10+02:00</time>
      </trkpt>
      <trkpt lat="48.3227" lon="7.20086">
        <ele>486</ele>
        <time>2021-03-30T10:54:15+02:00</time>
      </trkpt>
      <trkpt lat="48.32288" lon="7.20124">
        <ele>485</ele>
        <time>2021-03-30T10:54:20+02:00</time>
      </trkpt>
      <trkpt lat="48.32298" lon="7.20152">
        <ele>482</ele>
        <time>2021-03-30T10:54:25+02:00</time>
      </trkpt>
      <trkpt lat="48.323" lon="7.20166">
        <ele>479</ele>
        <time>2021-03-30T10:54:30+02:00</time>
      </trkpt>
      <trkpt lat="48.32303" lon="7.20193">
        <ele>476</ele>
        <time>2021-03-30T10:54:35+02:00</time>
      </trkpt>
      <trkpt lat="48.32308" lon="7.20215">
        <ele>474</ele>
        <time>2021-03-30T10:54:40+02:00</time>
      </trkpt>
      <trkpt lat="48.32319" lon="7.20249">
        <ele>469</ele>
        <time>2021-03-30T10:54:45+02:00</time>
      </trkpt>
      <trkpt lat="48.32327" lon="7.20278">
        <ele>467</ele>
        <time>2021-03-30T10:54:50+02:00</time>
      </trkpt>
      <trkpt lat="48.32333" lon="7.20325">
        <ele>464</ele>
        <time>2021-03-30T10:54:55+02:00</time>
      </trkpt>
      <trkpt lat="48.32334" lon="7.20364">
        <ele>464</ele>
        <time>2021-03-30T10:55:00+02:00</time>
      </trkpt>
      <trkpt lat="48.32339" lon="7.20388">
        <ele>464</ele>
        <time>2021-03-30T10:55:05+02:00</time>
      </trkpt>
      <trkpt lat="48.32346" lon="7.2045">
        <ele>462</ele>
        <time>2021-03-30T10:55:10+02:00</time>
      </trkpt>
      <trkpt lat="48.32351" lon="7.20517">
        <ele>458</ele>
        <time>2021-03-30T10:55:15+02:00</time>
      </trkpt>
      <trkpt lat="48.32348" lon="7.20564">
        <ele>457</ele>
        <time>2021-03-30T10:55:20+02:00</time>
      </trkpt>
      <trkpt lat="48.32348" lon="7.20593">
        <ele>456</ele>
        <time>2021-03-30T10:55:25+02:00</time>
      </trkpt>
      <trkpt lat="48.32354" lon="7.20622">
        <ele>455</ele>
        <time>2021-03-30T10:55:30+02:00</time>
      </trkpt>
      <trkpt lat="48.32369" lon="7.20651">
        <ele>452</ele>
        <time>2021-03-30T10:55:35+02:00</time>
      </trkpt>
      <trkpt lat="48.32383" lon="7.20676">
        <ele>449</ele>
        <time>2021-03-30T10:55:40+02:00</time>
      </trkpt>
      <trkpt lat="48.32392" lon="7.20697">
        <ele>447</ele>
        <time>2021-03-30T10:55:45+02:00</time>
      </trkpt>
      <trkpt lat="48.32408" lon="7.2074">
        <ele>442</ele>
        <time>2021-03-30T10:55:50+02:00</time>
      </trkpt>
      <trkpt lat="48.32419" lon="7.20774">
        <ele>439</ele>
        <time>2021-03-30T10:55:55+02:00</time>
      </trkpt>
      <trkpt lat="48.32429" lon="7.20834">
        <ele>438</ele>
        <time>2021-03-30T10:56:00+02:00</time>
      </trkpt>
      <trkpt lat="48.32441" lon="7.20883">
        <ele>436</ele>
        <time>2021-03-30T10:56:05+02:00</time>
      </trkpt>
      <trkpt lat="48.32451" lon="7.20911">
        <ele>434</ele>
        <time>2021-03-30T10:56:10+02:00</time>
      </trkpt>
      <trkpt lat="48.32459" lon="7.20933">
        <ele>433</ele>
        <time>2021-03-30T10:56:15+02:00</time>
      </trkpt>
      <trkpt lat="48.32473" lon="7.20956">
        <ele>430</ele>
        <time>2021-03-30T10:56:20+02:00</time>
      </trkpt>
      <trkpt lat="48.32492" lon="7.2098">
        <ele>425</ele>
        <time>2021-03-30T10:56:25+02:00</time>
      </trkpt>
      <trkpt lat="48.32504" lon="7.20994">
        <ele>421</ele>
        <time>2021-03-30T10:56:30+02:00</time>
      </trkpt>
      <trkpt lat="48.32515" lon="7.21022">
        <ele>420</ele>
        <time>2021-03-30T10:56:35+02:00</time>
      </trkpt>
      <trkpt lat="48.32531" lon="7.2105">
        <ele>418</ele>
        <time>2021-03-30T10:56:40+02:00</time>
      </trkpt>
      <trkpt lat="48.32545" lon="7.2107">
        <ele>416</ele>
        <time>2021-03-30T10:56:45+02:00</time>
      </trkpt>
      <trkpt lat="48.3255" lon="7.21074">
        <ele>415</ele>
        <time>2021-03-30T10:56:50+02:00</time>
      </trkpt>
      <trkpt lat="48.32561" lon="7.21094">
        <ele>414</ele>
        <time>2021-03-30T10:56:55+02:00</time>
      </trkpt>
      <trkpt lat="48.32572" lon="7.21106">
        <ele>412</ele>
        <time>2021-03-30T10:57:00+02:00</time>
      </trkpt>
      <trkpt lat="48.32586" lon="7.21106">
        <ele>411</ele>
        <time>2021-03-30T10:57:05+02:00</time>
      </trkpt>
      <trkpt lat="48.32592" lon="7.21103">
        <ele>412</ele>
        <time>2021-03-30T10:57:10+02:00</time>
      </trkpt>
      <trkpt lat="48.32605" lon="7.21238">
        <ele>411</ele>
        <time>2021-03-30T10:57:15+02:00</time>
      </trkpt>
      <trkpt lat="48.32592" lon="7.2124">
        <ele>410</ele>
        <time>2021-03-30T10:57:20+02:00</time>
      </trkpt>
      <trkpt lat="48.32586" lon="7.21246">
        <ele>410</ele>
        <time>2021-03-30T10:57:25+02:00</time>
      </trkpt>
      <trkpt lat="48.32578" lon="7.21258">
        <ele>411</ele>
        <time>2021-03-30T10:57:30+02:00</time>
      </trkpt>
      <trkpt lat="48.32576" lon="7.2128">
        <ele>412</ele>
        <time>2021-03-30T10:57:35+02:00</time>
      </trkpt>
      <trkpt lat="48.32573" lon="7.21328">
        <ele>413</ele>
        <time>2021-03-30T10:57:40+02:00</time>
      </trkpt>
      <trkpt lat="48.3257" lon="7.21353">
        <ele>414</ele>
        <time>2021-03-30T10:57:45+02:00</time>
      </trkpt>
      <trkpt lat="48.32558" lon="7.21402">
        <ele>419</ele>
        <time>2021-03-30T10:57:50+02:00</time>
      </trkpt>
      <trkpt lat="48.3255" lon="7.21443">
        <ele>421</ele>
        <time>2021-03-30T10:57:55+02:00</time>
      </trkpt>
      <trkpt lat="48.32542" lon="7.21497">
        <ele>421</ele>
        <time>2021-03-30T10:58:00+02:00</time>
      </trkpt>
      <trkpt lat="48.32541" lon="7.21509">
        <ele>421</ele>
        <time>2021-03-30T10:58:05+02:00</time>
      </trkpt>
      <trkpt lat="48.32535" lon="7.21531">
        <ele>423</ele>
        <time>2021-03-30T10:58:10+02:00</time>
      </trkpt>
      <trkpt lat="48.32526" lon="7.21554">
        <ele>425</ele>
        <time>2021-03-30T10:58:15+02:00</time>
      </trkpt>
      <trkpt lat="48.32517" lon="7.21585">
        <ele>427</ele>
        <time>2021-03-30T10:58:20+02:00</time>
      </trkpt>
      <trkpt lat="48.32515" lon="7.21597">
        <ele>427</ele>
        <time>2021-03-30T10:58:25+02:00</time>
      </trkpt>
      <trkpt lat="48.32518" lon="7.21614">
        <ele>427</ele>
        <time>2021-03-30T10:58:30+02:00</time>
      </trkpt>
      <trkpt lat="48.32522" lon="7.21626">
        <ele>426</ele>
        <time>2021-03-30T10:58:35+02:00</time>
      </trkpt>
      <trkpt lat="48.32528" lon="7.21643">
        <ele>424</ele>
        <time>2021-03-30T10:58:40+02:00</time>
      </trkpt>
      <trkpt lat="48.32534" lon="7.21677">
        <ele>423</ele>
        <time>2021-03-30T10:58:45+02:00</time>
      </trkpt>
      <trkpt lat="48.32534" lon="7.21696">
        <ele>424</ele>
        <time>2021-03-30T10:58:50+02:00</time>
      </trkpt>
      <trkpt lat="48.32526" lon="7.21749">
        <ele>427</ele>
        <time>2021-03-30T10:58:55+02:00</time>
      </trkpt>
      <trkpt lat="48.32509" lon="7.21809">
        <ele>432</ele>
        <time>2021-03-30T10:59:00+02:00</time>
      </trkpt>
      <trkpt lat="48.32508" lon="7.21814">
        <ele>433</ele>
        <time>2021-03-30T10:59:05+02:00</time>
      </trkpt>
      <trkpt lat="48.32505" lon="7.2186">
        <ele>433</ele>
        <time>2021-03-30T10:59:10+02:00</time>
      </trkpt>
      <trkpt lat="48.32499" lon="7.21883">
        <ele>434</ele>
        <time>2021-03-30T10:59:15+02:00</time>
      </trkpt>
      <trkpt lat="48.32491" lon="7.21911">
        <ele>437</ele>
        <time>2021-03-30T10:59:20+02:00</time>
      </trkpt>
      <trkpt lat="48.32483" lon="7.21946">
        <ele>440</ele>
        <time>2021-03-30T10:59:25+02:00</time>
      </trkpt>
      <trkpt lat="48.32484" lon="7.21985">
        <ele>440</ele>
        <time>2021-03-30T10:59:30+02:00</time>
      </trkpt>
      <trkpt lat="48.32484" lon="7.22004">
        <ele>440</ele>
        <time>2021-03-30T10:59:35+02:00</time>
      </trkpt>
      <trkpt lat="48.32486" lon="7.22028">
        <ele>440</ele>
        <time>2021-03-30T10:59:40+02:00</time>
      </trkpt>
      <trkpt lat="48.32492" lon="7.22096">
        <ele>439</ele>
        <time>2021-03-30T10:59:45+02:00</time>
      </trkpt>
      <trkpt lat="48.32498" lon="7.22154">
        <ele>431</ele>
        <time>2021-03-30T10:59:50+02:00</time>
      </trkpt>
      <trkpt lat="48.325" lon="7.22201">
        <ele>423</ele>
        <time>2021-03-30T10:59:55+02:00</time>
      </trkpt>
      <trkpt lat="48.32499" lon="7.22232">
        <ele>418</ele>
        <time>2021-03-30T11:00:00+02:00</time>
      </trkpt>
      <trkpt lat="48.32495" lon="7.22252">
        <ele>415</ele>
        <time>2021-03-30T11:00:05+02:00</time>
      </trkpt>
      <trkpt lat="48.32483" lon="7.22292">
        <ele>413</ele>
        <time>2021-03-30T11:00:10+02:00</time>
      </trkpt>
      <trkpt lat="48.32472" lon="7.22323">
        <ele>411</ele>
        <time>2021-03-30T11:00:15+02:00</time>
      </trkpt>
      <trkpt lat="48.32485" lon="7.22335">
        <ele>407</ele>
        <time>2021-03-30T11:00:20+02:00</time>
      </trkpt>
      <trkpt lat="48.32507" lon="7.22352">
        <ele>402</ele>
        <time>2021-03-30T11:00:25+02:00</time>
      </trkpt>
      <trkpt lat="48.32525" lon="7.22361">
        <ele>398</ele>
        <time>2021-03-30T11:00:30+02:00</time>
      </trkpt>
      <trkpt lat="48.3254" lon="7.22362">
        <ele>396</ele>
        <time>2021-03-30T11:00:35+02:00</time>
      </trkpt>
      <trkpt lat="48.32558" lon="7.22359">
        <ele>393</ele>
        <time>2021-03-30T11:00:40+02:00</time>
      </trkpt>
      <trkpt lat="48.3257" lon="7.22353">
        <ele>392</ele>
        <time>2021-03-30T11:00:45+02:00</time>
      </trkpt>
      <trkpt lat="48.32575" lon="7.22358">
        <ele>391</ele>
        <time>2021-03-30T11:00:50+02:00</time>
      </trkpt>
      <trkpt lat="48.32586" lon="7.22348">
        <ele>390</ele>
        <time>2021-03-30T11:00:55+02:00</time>
      </trkpt>
      <trkpt lat="48.32606" lon="7.22335">
        <ele>390</ele>
        <time>2021-03-30T11:01:00+02:00</time>
      </trkpt>
      <trkpt lat="48.32615" lon="7.22336">
        <ele>389</ele>
        <time>2021-03-30T11:01:05+02:00</time>
      </trkpt>
      <trkpt lat="48.32636" lon="7.22341">
        <ele>389</ele>
        <time>2021-03-30T11:01:10+02:00</time>
      </trkpt>
      <trkpt lat="48.3264" lon="7.22346">
        <ele>389</ele>
        <time>2021-03-30T11:01:15+02:00</time>
      </trkpt>
      <trkpt lat="48.32621" lon="7.22358">
        <ele>389</ele>
        <time>2021-03-30T11:01:20+02:00</time>
      </trkpt>
    </trkseg>
  </trk>
</gpx>